Munin Explorer — C4XX2 — position and weather

sailwx.info

Track history (hours):
 
Tides and Currents Weather Stations Pressure Air Temp Water Temp Dewpoint Dewpoint Depression Visibility Wind Speed Wind Dir Waves Ship Positions

Munin Explorer

Last reported at 2014-Aug-18 14:33 UTC. Time now 2014-Aug-20 06:51 UTC.
Position N 57°17' W 001°44'.

Length 60 m; draft 7.2 m.

Type: Ship. MMSI: 210228000.

Date/timePositionNaut miles runAvg speedWind from/ knotsBaromVisibWave heightAir tempDewpointWater temp
2014-Aug-18 14:33N 57°17' W 001°44'1 1.3
2014-Aug-18 13:33N 57°17' W 001°42'1 1.3
2014-Aug-18 12:33N 57°16' W 001°40'1 1.0
2014-Aug-18 11:33N 57°16' W 001°39'1 1.1
2014-Aug-18 10:30N 57°17' W 001°37'1 1.0
2014-Aug-18 09:28N 57°17' W 001°35'2 1.8
2014-Aug-18 08:33N 57°17' W 001°32'2 2.2
2014-Aug-18 07:31N 57°17' W 001°28'3 2.6
2014-Aug-18 06:28N 57°17' W 001°22'4 4.6
2014-Aug-18 05:33N 57°21' W 001°19'5 4.7
2014-Aug-18 04:33N 57°25' W 001°15'4 4.3
2014-Aug-18 03:33N 57°29' W 001°12'4 4.2
2014-Aug-18 02:30N 57°33' W 001°09'4 4.4
2014-Aug-18 01:33N 57°37' W 001°07'5 4.2
2014-Aug-18 00:15N 57°43' W 001°07'4 0.1
2014-Aug-16 12:33N 57°46' W 001°04'2 0.6
2014-Aug-16 08:25N 57°46' W 001°08'1 0.1
2014-Aug-16 01:16N 57°46' W 001°09'  
2014-Aug-13 17:12N 57°44' W 001°14'2 3.5
2014-Aug-13 16:33N 57°42' W 001°15'2 2.1
2014-Aug-13 15:29N 57°42' W 001°11'3 0.2
2014-Aug-12 23:32N 57°39' W 001°13'5 0.7
2014-Aug-12 16:21N 57°43' W 001°07'  
Track history (hours):
 
Tides and Currents Weather Stations Pressure Air Temp Water Temp Dewpoint Dewpoint Depression Visibility Wind Speed Wind Dir Waves Ship Positions

Munin Explorer

Last reported at 2014-Aug-18 14:33 UTC. Time now 2014-Aug-20 06:51 UTC.
Position N 57°17' W 001°44'.

Length 60 m; draft 7.2 m.

Type: Ship. MMSI: 210228000.

Date/timePositionNaut miles runAvg speedWind from/ knotsBaromVisibWave heightAir tempDewpointWater temp
2014-Aug-18 14:33N 57°17' W 001°44'1 1.3
2014-Aug-18 13:33N 57°17' W 001°42'1 1.3
2014-Aug-18 12:33N 57°16' W 001°40'1 1.0
2014-Aug-18 11:33N 57°16' W 001°39'1 1.1
2014-Aug-18 10:30N 57°17' W 001°37'1 1.0
2014-Aug-18 09:28N 57°17' W 001°35'2 1.8
2014-Aug-18 08:33N 57°17' W 001°32'2 2.2
2014-Aug-18 07:31N 57°17' W 001°28'3 2.6
2014-Aug-18 06:28N 57°17' W 001°22'4 4.6
2014-Aug-18 05:33N 57°21' W 001°19'5 4.7
2014-Aug-18 04:33N 57°25' W 001°15'4 4.3
2014-Aug-18 03:33N 57°29' W 001°12'4 4.2
2014-Aug-18 02:30N 57°33' W 001°09'4 4.4
2014-Aug-18 01:33N 57°37' W 001°07'5 4.2
2014-Aug-18 00:15N 57°43' W 001°07'4 0.1
2014-Aug-16 12:33N 57°46' W 001°04'2 0.6
2014-Aug-16 08:25N 57°46' W 001°08'1 0.1
2014-Aug-16 01:16N 57°46' W 001°09'  
2014-Aug-13 17:12N 57°44' W 001°14'2 3.5
2014-Aug-13 16:33N 57°42' W 001°15'2 2.1
2014-Aug-13 15:29N 57°42' W 001°11'3 0.2
2014-Aug-12 23:32N 57°39' W 001°13'5 0.7
2014-Aug-12 16:21N 57°43' W 001°07'  

Dump ship's entire track history